Nicholasville, KY (40340)

06:46 AM EDT del 31 Agosto 2015 (GMT -0400)
Belleau Wood/Veteran's Park | | Change Station
CLOSE
Current Station
Stazione meteo personale
Location: Lexington, KY
Altitudine: 978 ft
Stazioni meteo nelle vicinanze

Alt. 978 ft 37.97 °N, 84.51 °W | Updated 3 seconds ago

Parzialmente nuvoloso
Parzialmente nuvoloso
65.3 °F
Sembra 65.3 °F
N
0.0
Vento Variabile Vento da SO
Gusts 0.0 mph

Oggi
Massima -- | Minima -- °F
--% Possibilità di precip.
Ieri
Massima -- | Minima -- °F
Precip. -- in
7:07 AM 8:09 PM
Gobba a levante, 96% visible
Pressione 30.08 in
Visibilità 10.0 miglia
Nuvole Coperto 11000 ft
Punto di rugiada 63 °F
Umidità 93%
Piovosità in
Spessore del manto nevoso Non disponibile.
Raggi UV 0 fuori da 12
Polline 8.60 fuori da 12
Qualità dell'aria Non disponibile.
Flu Activity Non disponibile.
METAR KLEX 310954Z AUTO 00000KT 10SM OVC110 19/17 A3010 RMK AO2 SLP185 T01890172 $
Pressione 30.08 in
Visibilità 10.0 miglia
Nuvole Coperto 11000 ft
Punto di rugiada 63 °F
Umidità 93%
Piovosità in
Spessore del manto nevoso Non disponibile.
Raggi UV 0 fuori da 12
Polline 8.60 fuori da 12
Qualità dell'aria Non disponibile.
Flu Activity Non disponibile.
METAR KLEX 310954Z AUTO 00000KT 10SM OVC110 19/17 A3010 RMK AO2 SLP185 T01890172 $

10-Day Weather Forecast

×

Almanac

Astronomia

Aug. 31, 2015 Alba Tramonto
Ora attuale
Crepuscolo civile
Crepuscolo nautico
Crepuscolo astronomico
Luna
Estensione della luce visibile
Lunghezza del giorno
Tomorrow will be .
, % of the Moon is Illuminated

Gli estremi di oggi

State Highs State Lows

Community

WunderPhotos

Upload Photos

1,851,227 foto caricate!

WunderBlogs® & News

Nearby

Qualità dell'aria

  Qualità dell'aria Indice AQ Inquinante
Not available.

Profondità neve

Stazione Profondità Altitudine

Attività sismica

Città  Distanza Mag. Data & Ora
Minimo Magnitudo Mostrato è 2.5.

Temperature delle acque costiere

Località Temperatura

Stations

Stazioni meteo nelle vicinanze

Ubicazione della stazione Temp. Raffreddamento del vento Punto di rugiada Umidità Vento Precip. Alt. Aggiornato Tipo